sensor_id;sensor_type;location;lat;lon;timestamp;P1;durP1;ratioP1;P2;durP2;ratioP2
62332;SDS011;48624;49.812;8.562;2023-10-19T00:00:39;24.92;;;17.10;;
62332;SDS011;48624;49.812;8.562;2023-10-19T00:03:09;29.48;;;19.15;;
62332;SDS011;48624;49.812;8.562;2023-10-19T00:05:36;32.95;;;19.23;;
62332;SDS011;48624;49.812;8.562;2023-10-19T00:08:03;29.17;;;18.13;;
62332;SDS011;48624;49.812;8.562;2023-10-19T00:10:44;30.85;;;17.70;;
62332;SDS011;48624;49.812;8.562;2023-10-19T00:13:20;27.60;;;19.40;;
62332;SDS011;48624;49.812;8.562;2023-10-19T00:15:47;30.15;;;18.70;;
62332;SDS011;48624;49.812;8.562;2023-10-19T00:18:15;31.33;;;18.98;;
62332;SDS011;48624;49.812;8.562;2023-10-19T00:20:41;29.45;;;19.52;;
62332;SDS011;48624;49.812;8.562;2023-10-19T00:23:11;32.63;;;18.90;;
62332;SDS011;48624;49.812;8.562;2023-10-19T00:25:38;28.88;;;19.02;;
62332;SDS011;48624;49.812;8.562;2023-10-19T00:28:07;32.55;;;17.77;;
62332;SDS011;48624;49.812;8.562;2023-10-19T00:30:34;27.50;;;18.67;;
62332;SDS011;48624;49.812;8.562;2023-10-19T00:33:02;29.50;;;18.48;;
62332;SDS011;48624;49.812;8.562;2023-10-19T00:35:41;32.72;;;19.52;;
62332;SDS011;48624;49.812;8.562;2023-10-19T00:38:15;33.80;;;17.60;;
62332;SDS011;48624;49.812;8.562;2023-10-19T00:40:56;38.22;;;21.90;;
62332;SDS011;48624;49.812;8.562;2023-10-19T00:43:32;31.88;;;20.67;;
62332;SDS011;48624;49.812;8.562;2023-10-19T00:46:02;36.42;;;22.27;;
62332;SDS011;48624;49.812;8.562;2023-10-19T00:48:35;33.78;;;22.02;;
62332;SDS011;48624;49.812;8.562;2023-10-19T00:51:02;38.92;;;22.98;;
62332;SDS011;48624;49.812;8.562;2023-10-19T00:53:35;43.60;;;25.10;;
62332;SDS011;48624;49.812;8.562;2023-10-19T00:56:03;42.08;;;26.20;;
62332;SDS011;48624;49.812;8.562;2023-10-19T00:58:31;47.08;;;25.23;;
62332;SDS011;48624;49.812;8.562;2023-10-19T01:01:01;46.85;;;28.35;;
62332;SDS011;48624;49.812;8.562;2023-10-19T01:03:30;48.20;;;26.83;;
62332;SDS011;48624;49.812;8.562;2023-10-19T01:06:05;41.55;;;25.65;;
62332;SDS011;48624;49.812;8.562;2023-10-19T01:08:35;42.15;;;24.55;;
62332;SDS011;48624;49.812;8.562;2023-10-19T01:11:06;41.78;;;23.58;;
62332;SDS011;48624;49.812;8.562;2023-10-19T01:13:37;38.33;;;22.23;;
62332;SDS011;48624;49.812;8.562;2023-10-19T01:16:03;44.85;;;26.70;;
62332;SDS011;48624;49.812;8.562;2023-10-19T01:18:29;40.72;;;25.15;;
62332;SDS011;48624;49.812;8.562;2023-10-19T01:20:57;40.13;;;22.52;;
62332;SDS011;48624;49.812;8.562;2023-10-19T01:23:27;39.47;;;24.95;;
62332;SDS011;48624;49.812;8.562;2023-10-19T01:25:56;38.10;;;22.20;;
62332;SDS011;48624;49.812;8.562;2023-10-19T01:28:24;42.75;;;24.08;;
62332;SDS011;48624;49.812;8.562;2023-10-19T01:31:05;39.97;;;25.30;;
62332;SDS011;48624;49.812;8.562;2023-10-19T01:33:31;45.05;;;23.92;;
62332;SDS011;48624;49.812;8.562;2023-10-19T01:35:59;42.78;;;26.58;;
62332;SDS011;48624;49.812;8.562;2023-10-19T01:38:39;43.97;;;22.98;;
62332;SDS011;48624;49.812;8.562;2023-10-19T01:41:06;42.97;;;25.00;;
62332;SDS011;48624;49.812;8.562;2023-10-19T01:43:39;43.55;;;24.73;;
62332;SDS011;48624;49.812;8.562;2023-10-19T01:46:09;38.10;;;22.08;;
62332;SDS011;48624;49.812;8.562;2023-10-19T01:51:09;45.72;;;25.08;;
62332;SDS011;48624;49.812;8.562;2023-10-19T01:53:37;41.63;;;22.95;;
62332;SDS011;48624;49.812;8.562;2023-10-19T01:56:08;43.33;;;24.25;;
62332;SDS011;48624;49.812;8.562;2023-10-19T01:58:38;43.90;;;25.88;;
62332;SDS011;48624;49.812;8.562;2023-10-19T02:01:04;39.00;;;23.98;;
62332;SDS011;48624;49.812;8.562;2023-10-19T02:03:44;39.08;;;20.92;;
62332;SDS011;48624;49.812;8.562;2023-10-19T02:06:09;41.35;;;23.00;;
62332;SDS011;48624;49.812;8.562;2023-10-19T02:08:45;37.85;;;23.15;;
62332;SDS011;48624;49.812;8.562;2023-10-19T02:11:49;36.60;;;23.98;;
62332;SDS011;48624;49.812;8.562;2023-10-19T02:14:18;40.70;;;22.67;;
62332;SDS011;48624;49.812;8.562;2023-10-19T02:16:45;40.25;;;22.42;;
62332;SDS011;48624;49.812;8.562;2023-10-19T02:19:18;37.25;;;22.92;;
62332;SDS011;48624;49.812;8.562;2023-10-19T02:21:45;40.47;;;24.13;;
62332;SDS011;48624;49.812;8.562;2023-10-19T02:24:13;37.42;;;23.08;;
62332;SDS011;48624;49.812;8.562;2023-10-19T02:26:40;37.00;;;22.83;;
62332;SDS011;48624;49.812;8.562;2023-10-19T02:29:09;42.40;;;23.02;;
62332;SDS011;48624;49.812;8.562;2023-10-19T02:31:35;40.15;;;22.35;;
62332;SDS011;48624;49.812;8.562;2023-10-19T02:34:02;37.67;;;22.52;;
62332;SDS011;48624;49.812;8.562;2023-10-19T02:36:29;39.78;;;22.88;;
62332;SDS011;48624;49.812;8.562;2023-10-19T02:38:56;39.70;;;23.98;;
62332;SDS011;48624;49.812;8.562;2023-10-19T02:41:25;39.88;;;24.80;;
62332;SDS011;48624;49.812;8.562;2023-10-19T02:43:52;45.65;;;26.08;;
62332;SDS011;48624;49.812;8.562;2023-10-19T02:46:29;41.65;;;26.77;;
62332;SDS011;48624;49.812;8.562;2023-10-19T02:48:59;43.58;;;23.98;;
62332;SDS011;48624;49.812;8.562;2023-10-19T02:51:25;42.28;;;23.20;;
62332;SDS011;48624;49.812;8.562;2023-10-19T02:53:51;44.22;;;24.90;;
62332;SDS011;48624;49.812;8.562;2023-10-19T02:56:16;40.97;;;25.23;;
62332;SDS011;48624;49.812;8.562;2023-10-19T02:58:43;40.67;;;25.00;;
62332;SDS011;48624;49.812;8.562;2023-10-19T03:01:14;42.30;;;24.23;;
62332;SDS011;48624;49.812;8.562;2023-10-19T03:03:44;40.88;;;23.88;;
62332;SDS011;48624;49.812;8.562;2023-10-19T03:06:11;41.17;;;27.40;;
62332;SDS011;48624;49.812;8.562;2023-10-19T03:08:36;49.50;;;28.45;;
62332;SDS011;48624;49.812;8.562;2023-10-19T03:11:02;47.83;;;28.80;;
62332;SDS011;48624;49.812;8.562;2023-10-19T03:13:30;41.80;;;25.55;;
62332;SDS011;48624;49.812;8.562;2023-10-19T03:16:01;39.40;;;22.42;;
62332;SDS011;48624;49.812;8.562;2023-10-19T03:18:31;47.78;;;26.83;;
62332;SDS011;48624;49.812;8.562;2023-10-19T03:20:56;42.30;;;23.45;;
62332;SDS011;48624;49.812;8.562;2023-10-19T03:23:22;43.38;;;24.52;;
62332;SDS011;48624;49.812;8.562;2023-10-19T03:25:52;40.40;;;23.75;;
62332;SDS011;48624;49.812;8.562;2023-10-19T03:28:37;41.60;;;24.23;;
62332;SDS011;48624;49.812;8.562;2023-10-19T03:31:03;48.70;;;24.98;;
62332;SDS011;48624;49.812;8.562;2023-10-19T03:33:29;43.20;;;26.40;;
62332;SDS011;48624;49.812;8.562;2023-10-19T03:35:56;45.78;;;28.90;;
62332;SDS011;48624;49.812;8.562;2023-10-19T03:38:21;49.47;;;27.73;;
62332;SDS011;48624;49.812;8.562;2023-10-19T03:40:48;43.38;;;25.42;;
62332;SDS011;48624;49.812;8.562;2023-10-19T03:43:17;45.53;;;26.20;;
62332;SDS011;48624;49.812;8.562;2023-10-19T03:45:46;46.22;;;25.83;;
62332;SDS011;48624;49.812;8.562;2023-10-19T03:48:23;47.63;;;26.17;;
62332;SDS011;48624;49.812;8.562;2023-10-19T03:50:54;47.70;;;26.75;;
62332;SDS011;48624;49.812;8.562;2023-10-19T03:53:21;46.25;;;26.30;;
62332;SDS011;48624;49.812;8.562;2023-10-19T03:55:47;52.03;;;25.40;;
62332;SDS011;48624;49.812;8.562;2023-10-19T03:58:13;51.00;;;28.02;;
62332;SDS011;48624;49.812;8.562;2023-10-19T04:00:38;44.00;;;25.02;;
62332;SDS011;48624;49.812;8.562;2023-10-19T04:03:04;53.10;;;28.00;;
62332;SDS011;48624;49.812;8.562;2023-10-19T04:05:29;44.78;;;25.98;;
62332;SDS011;48624;49.812;8.562;2023-10-19T04:07:56;54.38;;;28.08;;
62332;SDS011;48624;49.812;8.562;2023-10-19T04:10:30;56.55;;;27.98;;
62332;SDS011;48624;49.812;8.562;2023-10-19T04:12:55;56.15;;;27.75;;
62332;SDS011;48624;49.812;8.562;2023-10-19T04:15:24;52.60;;;27.15;;
62332;SDS011;48624;49.812;8.562;2023-10-19T04:17:51;55.78;;;29.83;;
62332;SDS011;48624;49.812;8.562;2023-10-19T04:20:20;64.88;;;31.33;;
62332;SDS011;48624;49.812;8.562;2023-10-19T04:22:51;63.78;;;31.38;;
62332;SDS011;48624;49.812;8.562;2023-10-19T04:25:18;56.95;;;31.20;;
62332;SDS011;48624;49.812;8.562;2023-10-19T04:27:45;65.07;;;30.33;;
62332;SDS011;48624;49.812;8.562;2023-10-19T04:30:14;64.63;;;32.63;;
62332;SDS011;48624;49.812;8.562;2023-10-19T04:32:52;73.72;;;35.72;;
62332;SDS011;48624;49.812;8.562;2023-10-19T04:35:18;73.25;;;33.50;;
62332;SDS011;48624;49.812;8.562;2023-10-19T04:37:51;67.40;;;29.38;;
62332;SDS011;48624;49.812;8.562;2023-10-19T04:40:18;69.32;;;33.42;;
62332;SDS011;48624;49.812;8.562;2023-10-19T04:42:44;63.20;;;31.27;;
62332;SDS011;48624;49.812;8.562;2023-10-19T04:45:10;72.80;;;30.85;;
62332;SDS011;48624;49.812;8.562;2023-10-19T04:47:37;72.88;;;33.58;;
62332;SDS011;48624;49.812;8.562;2023-10-19T04:50:03;66.55;;;29.42;;
62332;SDS011;48624;49.812;8.562;2023-10-19T04:52:30;70.15;;;31.67;;
62332;SDS011;48624;49.812;8.562;2023-10-19T04:54:55;73.35;;;33.30;;
62332;SDS011;48624;49.812;8.562;2023-10-19T04:57:20;63.03;;;29.95;;
62332;SDS011;48624;49.812;8.562;2023-10-19T04:59:46;67.60;;;33.28;;
62332;SDS011;48624;49.812;8.562;2023-10-19T05:02:12;66.80;;;31.50;;
62332;SDS011;48624;49.812;8.562;2023-10-19T05:04:37;65.88;;;30.15;;
62332;SDS011;48624;49.812;8.562;2023-10-19T05:07:03;70.95;;;31.50;;
62332;SDS011;48624;49.812;8.562;2023-10-19T05:09:29;71.88;;;34.08;;
62332;SDS011;48624;49.812;8.562;2023-10-19T05:11:54;71.43;;;33.55;;
62332;SDS011;48624;49.812;8.562;2023-10-19T05:14:20;78.43;;;36.83;;
62332;SDS011;48624;49.812;8.562;2023-10-19T05:16:45;73.13;;;33.53;;
62332;SDS011;48624;49.812;8.562;2023-10-19T05:19:11;70.85;;;32.78;;
62332;SDS011;48624;49.812;8.562;2023-10-19T05:21:36;68.07;;;30.17;;
62332;SDS011;48624;49.812;8.562;2023-10-19T05:24:02;65.88;;;31.35;;
62332;SDS011;48624;49.812;8.562;2023-10-19T05:26:27;64.85;;;31.80;;
62332;SDS011;48624;49.812;8.562;2023-10-19T05:28:52;60.22;;;28.25;;
62332;SDS011;48624;49.812;8.562;2023-10-19T05:31:19;71.50;;;33.85;;
62332;SDS011;48624;49.812;8.562;2023-10-19T05:33:44;74.10;;;32.35;;
62332;SDS011;48624;49.812;8.562;2023-10-19T05:36:09;71.70;;;34.22;;
62332;SDS011;48624;49.812;8.562;2023-10-19T05:38:35;65.95;;;30.95;;
62332;SDS011;48624;49.812;8.562;2023-10-19T05:41:00;71.05;;;34.03;;
62332;SDS011;48624;49.812;8.562;2023-10-19T05:43:26;77.00;;;35.30;;
62332;SDS011;48624;49.812;8.562;2023-10-19T05:45:51;74.72;;;32.78;;
62332;SDS011;48624;49.812;8.562;2023-10-19T05:48:16;74.07;;;34.33;;
62332;SDS011;48624;49.812;8.562;2023-10-19T05:50:42;74.13;;;37.78;;
62332;SDS011;48624;49.812;8.562;2023-10-19T05:53:08;79.15;;;37.40;;
62332;SDS011;48624;49.812;8.562;2023-10-19T05:55:34;86.05;;;41.78;;
62332;SDS011;48624;49.812;8.562;2023-10-19T05:58:00;83.78;;;38.45;;
62332;SDS011;48624;49.812;8.562;2023-10-19T06:00:29;85.28;;;36.90;;
62332;SDS011;48624;49.812;8.562;2023-10-19T06:02:55;84.45;;;36.55;;
62332;SDS011;48624;49.812;8.562;2023-10-19T06:05:21;77.70;;;37.58;;
62332;SDS011;48624;49.812;8.562;2023-10-19T06:07:46;92.47;;;39.85;;
62332;SDS011;48624;49.812;8.562;2023-10-19T06:10:14;78.85;;;36.10;;
62332;SDS011;48624;49.812;8.562;2023-10-19T06:12:42;84.40;;;37.75;;
62332;SDS011;48624;49.812;8.562;2023-10-19T06:15:09;84.43;;;35.08;;
62332;SDS011;48624;49.812;8.562;2023-10-19T06:17:36;83.68;;;38.60;;
62332;SDS011;48624;49.812;8.562;2023-10-19T06:20:06;89.13;;;39.05;;
62332;SDS011;48624;49.812;8.562;2023-10-19T06:22:45;88.90;;;38.22;;
62332;SDS011;48624;49.812;8.562;2023-10-19T06:25:21;76.72;;;35.58;;
62332;SDS011;48624;49.812;8.562;2023-10-19T06:27:49;81.55;;;35.72;;
62332;SDS011;48624;49.812;8.562;2023-10-19T06:30:16;90.22;;;38.13;;
62332;SDS011;48624;49.812;8.562;2023-10-19T06:32:45;78.65;;;38.40;;
62332;SDS011;48624;49.812;8.562;2023-10-19T06:35:12;79.22;;;35.67;;
62332;SDS011;48624;49.812;8.562;2023-10-19T06:37:37;92.25;;;37.42;;
62332;SDS011;48624;49.812;8.562;2023-10-19T06:40:03;73.25;;;35.15;;
62332;SDS011;48624;49.812;8.562;2023-10-19T06:42:31;72.65;;;35.10;;
62332;SDS011;48624;49.812;8.562;2023-10-19T06:44:56;69.00;;;29.30;;
62332;SDS011;48624;49.812;8.562;2023-10-19T06:47:22;62.72;;;29.13;;
62332;SDS011;48624;49.812;8.562;2023-10-19T06:49:48;59.17;;;29.23;;
62332;SDS011;48624;49.812;8.562;2023-10-19T06:52:13;56.72;;;28.73;;
62332;SDS011;48624;49.812;8.562;2023-10-19T06:54:38;60.92;;;30.25;;
62332;SDS011;48624;49.812;8.562;2023-10-19T06:57:04;54.78;;;30.40;;
62332;SDS011;48624;49.812;8.562;2023-10-19T06:59:29;60.65;;;29.85;;
62332;SDS011;48624;49.812;8.562;2023-10-19T07:01:54;49.55;;;26.13;;
62332;SDS011;48624;49.812;8.562;2023-10-19T07:04:20;52.78;;;28.52;;
62332;SDS011;48624;49.812;8.562;2023-10-19T07:06:45;51.60;;;28.70;;
62332;SDS011;48624;49.812;8.562;2023-10-19T07:09:12;50.45;;;27.25;;
62332;SDS011;48624;49.812;8.562;2023-10-19T07:11:38;55.45;;;28.98;;
62332;SDS011;48624;49.812;8.562;2023-10-19T07:14:03;50.00;;;26.10;;
62332;SDS011;48624;49.812;8.562;2023-10-19T07:16:32;53.83;;;26.73;;
62332;SDS011;48624;49.812;8.562;2023-10-19T07:18:57;53.60;;;25.63;;
62332;SDS011;48624;49.812;8.562;2023-10-19T07:21:24;49.55;;;25.83;;
62332;SDS011;48624;49.812;8.562;2023-10-19T07:23:50;52.03;;;25.58;;
62332;SDS011;48624;49.812;8.562;2023-10-19T07:26:17;57.22;;;29.60;;
62332;SDS011;48624;49.812;8.562;2023-10-19T07:28:44;51.22;;;26.95;;
62332;SDS011;48624;49.812;8.562;2023-10-19T07:31:09;49.97;;;27.58;;
62332;SDS011;48624;49.812;8.562;2023-10-19T07:33:40;54.08;;;29.23;;
62332;SDS011;48624;49.812;8.562;2023-10-19T07:36:13;47.78;;;26.90;;
62332;SDS011;48624;49.812;8.562;2023-10-19T07:38:43;52.25;;;27.90;;
62332;SDS011;48624;49.812;8.562;2023-10-19T07:41:10;47.78;;;25.92;;
62332;SDS011;48624;49.812;8.562;2023-10-19T07:43:36;52.47;;;27.10;;
62332;SDS011;48624;49.812;8.562;2023-10-19T07:46:01;46.88;;;25.23;;
62332;SDS011;48624;49.812;8.562;2023-10-19T07:48:27;45.58;;;25.23;;
62332;SDS011;48624;49.812;8.562;2023-10-19T07:50:52;49.85;;;28.55;;
62332;SDS011;48624;49.812;8.562;2023-10-19T07:53:18;48.45;;;28.88;;
62332;SDS011;48624;49.812;8.562;2023-10-19T07:55:44;47.22;;;26.48;;
62332;SDS011;48624;49.812;8.562;2023-10-19T07:58:09;44.95;;;26.35;;
62332;SDS011;48624;49.812;8.562;2023-10-19T08:00:35;44.70;;;25.02;;
62332;SDS011;48624;49.812;8.562;2023-10-19T08:03:01;38.22;;;22.38;;
62332;SDS011;48624;49.812;8.562;2023-10-19T08:05:27;39.97;;;23.75;;
62332;SDS011;48624;49.812;8.562;2023-10-19T08:07:53;43.15;;;24.27;;
62332;SDS011;48624;49.812;8.562;2023-10-19T08:10:19;42.45;;;23.98;;
62332;SDS011;48624;49.812;8.562;2023-10-19T08:12:46;43.33;;;24.85;;
62332;SDS011;48624;49.812;8.562;2023-10-19T08:15:13;46.15;;;25.38;;
62332;SDS011;48624;49.812;8.562;2023-10-19T08:17:41;47.05;;;26.98;;
62332;SDS011;48624;49.812;8.562;2023-10-19T08:20:07;43.53;;;24.33;;
62332;SDS011;48624;49.812;8.562;2023-10-19T08:22:37;45.28;;;25.80;;
62332;SDS011;48624;49.812;8.562;2023-10-19T08:25:03;43.47;;;26.10;;
62332;SDS011;48624;49.812;8.562;2023-10-19T08:27:36;43.60;;;24.95;;
62332;SDS011;48624;49.812;8.562;2023-10-19T08:30:02;47.35;;;25.90;;
62332;SDS011;48624;49.812;8.562;2023-10-19T08:32:28;46.35;;;26.25;;
62332;SDS011;48624;49.812;8.562;2023-10-19T08:34:54;44.90;;;25.88;;
62332;SDS011;48624;49.812;8.562;2023-10-19T08:37:19;41.47;;;25.67;;
62332;SDS011;48624;49.812;8.562;2023-10-19T08:39:44;38.67;;;22.45;;
62332;SDS011;48624;49.812;8.562;2023-10-19T08:42:10;38.03;;;22.33;;
62332;SDS011;48624;49.812;8.562;2023-10-19T08:44:35;37.65;;;22.67;;
62332;SDS011;48624;49.812;8.562;2023-10-19T08:47:01;36.70;;;23.38;;
62332;SDS011;48624;49.812;8.562;2023-10-19T08:49:26;40.15;;;22.55;;
62332;SDS011;48624;49.812;8.562;2023-10-19T08:51:52;34.15;;;22.25;;
62332;SDS011;48624;49.812;8.562;2023-10-19T08:54:19;32.42;;;22.80;;
62332;SDS011;48624;49.812;8.562;2023-10-19T08:56:44;36.35;;;21.13;;
62332;SDS011;48624;49.812;8.562;2023-10-19T08:59:10;26.85;;;18.35;;
62332;SDS011;48624;49.812;8.562;2023-10-19T09:01:36;35.60;;;21.90;;
62332;SDS011;48624;49.812;8.562;2023-10-19T09:04:01;29.83;;;20.80;;
62332;SDS011;48624;49.812;8.562;2023-10-19T09:06:27;27.80;;;19.67;;
62332;SDS011;48624;49.812;8.562;2023-10-19T09:08:54;28.95;;;19.70;;
62332;SDS011;48624;49.812;8.562;2023-10-19T09:11:25;29.42;;;19.77;;
62332;SDS011;48624;49.812;8.562;2023-10-19T09:13:51;26.95;;;17.13;;
62332;SDS011;48624;49.812;8.562;2023-10-19T09:16:20;23.80;;;17.00;;
62332;SDS011;48624;49.812;8.562;2023-10-19T09:18:47;22.25;;;16.60;;
62332;SDS011;48624;49.812;8.562;2023-10-19T09:21:17;23.40;;;16.40;;
62332;SDS011;48624;49.812;8.562;2023-10-19T09:23:50;21.85;;;15.07;;
62332;SDS011;48624;49.812;8.562;2023-10-19T09:26:16;20.85;;;15.23;;
62332;SDS011;48624;49.812;8.562;2023-10-19T09:28:45;21.48;;;13.77;;
62332;SDS011;48624;49.812;8.562;2023-10-19T09:31:15;18.60;;;13.73;;
62332;SDS011;48624;49.812;8.562;2023-10-19T09:33:41;15.85;;;12.20;;
62332;SDS011;48624;49.812;8.562;2023-10-19T09:36:09;17.42;;;11.27;;
62332;SDS011;48624;49.812;8.562;2023-10-19T09:38:50;15.40;;;10.77;;
62332;SDS011;48624;49.812;8.562;2023-10-19T09:41:20;15.07;;;10.68;;
62332;SDS011;48624;49.812;8.562;2023-10-19T09:43:57;10.60;;;7.78;;
62332;SDS011;48624;49.812;8.562;2023-10-19T09:46:30;10.82;;;7.10;;
62332;SDS011;48624;49.812;8.562;2023-10-19T09:48:56;11.65;;;6.45;;
62332;SDS011;48624;49.812;8.562;2023-10-19T09:51:22;8.40;;;6.50;;
62332;SDS011;48624;49.812;8.562;2023-10-19T09:53:53;8.98;;;6.63;;
62332;SDS011;48624;49.812;8.562;2023-10-19T09:56:20;11.30;;;6.68;;
62332;SDS011;48624;49.812;8.562;2023-10-19T09:58:50;11.75;;;7.47;;
62332;SDS011;48624;49.812;8.562;2023-10-19T10:01:19;7.78;;;6.60;;
62332;SDS011;48624;49.812;8.562;2023-10-19T10:03:47;9.70;;;6.68;;
62332;SDS011;48624;49.812;8.562;2023-10-19T10:06:26;7.97;;;6.13;;
62332;SDS011;48624;49.812;8.562;2023-10-19T10:08:55;8.07;;;5.05;;
62332;SDS011;48624;49.812;8.562;2023-10-19T10:11:24;6.45;;;4.75;;
62332;SDS011;48624;49.812;8.562;2023-10-19T10:13:54;12.20;;;5.50;;
62332;SDS011;48624;49.812;8.562;2023-10-19T10:16:27;5.50;;;4.45;;
62332;SDS011;48624;49.812;8.562;2023-10-19T10:18:54;9.25;;;5.28;;
62332;SDS011;48624;49.812;8.562;2023-10-19T10:21:26;5.97;;;3.45;;
62332;SDS011;48624;49.812;8.562;2023-10-19T10:26:18;5.50;;;3.72;;
62332;SDS011;48624;49.812;8.562;2023-10-19T10:29:04;5.40;;;3.08;;
62332;SDS011;48624;49.812;8.562;2023-10-19T10:31:44;5.22;;;3.38;;
62332;SDS011;48624;49.812;8.562;2023-10-19T10:34:11;4.78;;;3.20;;
62332;SDS011;48624;49.812;8.562;2023-10-19T10:37:04;5.82;;;3.70;;
62332;SDS011;48624;49.812;8.562;2023-10-19T10:39:32;4.72;;;2.83;;
62332;SDS011;48624;49.812;8.562;2023-10-19T10:42:02;9.73;;;3.58;;
62332;SDS011;48624;49.812;8.562;2023-10-19T10:44:46;3.67;;;3.38;;
62332;SDS011;48624;49.812;8.562;2023-10-19T10:47:18;5.85;;;4.30;;
62332;SDS011;48624;49.812;8.562;2023-10-19T10:49:53;4.60;;;2.92;;
62332;SDS011;48624;49.812;8.562;2023-10-19T10:52:35;5.47;;;3.30;;
62332;SDS011;48624;49.812;8.562;2023-10-19T10:55:08;10.73;;;5.10;;
62332;SDS011;48624;49.812;8.562;2023-10-19T10:57:36;6.97;;;4.68;;
62332;SDS011;48624;49.812;8.562;2023-10-19T11:00:14;8.70;;;5.78;;
62332;SDS011;48624;49.812;8.562;2023-10-19T11:02:59;9.48;;;5.65;;
62332;SDS011;48624;49.812;8.562;2023-10-19T11:05:29;7.53;;;5.13;;
62332;SDS011;48624;49.812;8.562;2023-10-19T11:08:04;6.70;;;4.57;;
62332;SDS011;48624;49.812;8.562;2023-10-19T11:10:32;7.25;;;4.47;;
62332;SDS011;48624;49.812;8.562;2023-10-19T11:13:02;11.93;;;4.97;;
62332;SDS011;48624;49.812;8.562;2023-10-19T11:15:28;6.40;;;4.20;;
62332;SDS011;48624;49.812;8.562;2023-10-19T11:17:53;5.50;;;4.28;;
62332;SDS011;48624;49.812;8.562;2023-10-19T11:20:22;7.43;;;3.65;;
62332;SDS011;48624;49.812;8.562;2023-10-19T11:22:50;5.90;;;4.60;;
62332;SDS011;48624;49.812;8.562;2023-10-19T11:25:21;8.02;;;4.32;;
62332;SDS011;48624;49.812;8.562;2023-10-19T11:27:53;7.55;;;4.78;;
62332;SDS011;48624;49.812;8.562;2023-10-19T11:30:27;6.32;;;4.68;;
62332;SDS011;48624;49.812;8.562;2023-10-19T11:32:53;7.50;;;5.07;;
62332;SDS011;48624;49.812;8.562;2023-10-19T11:35:25;5.50;;;4.30;;
62332;SDS011;48624;49.812;8.562;2023-10-19T11:37:53;6.93;;;4.60;;
62332;SDS011;48624;49.812;8.562;2023-10-19T11:40:23;5.60;;;3.55;;
62332;SDS011;48624;49.812;8.562;2023-10-19T11:42:49;7.90;;;4.25;;
62332;SDS011;48624;49.812;8.562;2023-10-19T11:45:15;7.75;;;4.40;;
62332;SDS011;48624;49.812;8.562;2023-10-19T11:47:45;7.38;;;4.63;;
62332;SDS011;48624;49.812;8.562;2023-10-19T11:50:11;7.25;;;4.63;;
62332;SDS011;48624;49.812;8.562;2023-10-19T11:52:43;6.13;;;4.32;;
62332;SDS011;48624;49.812;8.562;2023-10-19T11:55:13;8.40;;;4.22;;
62332;SDS011;48624;49.812;8.562;2023-10-19T11:57:40;7.43;;;5.07;;
62332;SDS011;48624;49.812;8.562;2023-10-19T12:00:08;8.27;;;4.28;;
62332;SDS011;48624;49.812;8.562;2023-10-19T12:02:38;6.90;;;4.30;;
62332;SDS011;48624;49.812;8.562;2023-10-19T12:05:05;9.43;;;5.85;;
62332;SDS011;48624;49.812;8.562;2023-10-19T12:07:35;4.95;;;4.20;;
62332;SDS011;48624;49.812;8.562;2023-10-19T12:10:12;6.68;;;4.90;;
62332;SDS011;48624;49.812;8.562;2023-10-19T12:12:38;14.05;;;5.68;;
62332;SDS011;48624;49.812;8.562;2023-10-19T12:15:04;8.20;;;4.45;;
62332;SDS011;48624;49.812;8.562;2023-10-19T12:17:30;6.55;;;4.50;;
62332;SDS011;48624;49.812;8.562;2023-10-19T12:19:56;5.95;;;3.88;;
62332;SDS011;48624;49.812;8.562;2023-10-19T12:22:21;9.80;;;5.55;;
62332;SDS011;48624;49.812;8.562;2023-10-19T12:24:47;9.60;;;8.75;;
62332;SDS011;48624;49.812;8.562;2023-10-19T12:27:14;7.10;;;4.00;;
62332;SDS011;48624;49.812;8.562;2023-10-19T12:29:40;4.93;;;3.38;;
62332;SDS011;48624;49.812;8.562;2023-10-19T12:32:05;13.20;;;9.80;;
62332;SDS011;48624;49.812;8.562;2023-10-19T12:34:31;5.85;;;4.50;;
62332;SDS011;48624;49.812;8.562;2023-10-19T12:36:56;5.95;;;4.03;;
62332;SDS011;48624;49.812;8.562;2023-10-19T12:39:23;4.95;;;4.47;;
62332;SDS011;48624;49.812;8.562;2023-10-19T12:42:03;6.47;;;3.65;;
62332;SDS011;48624;49.812;8.562;2023-10-19T12:44:28;5.25;;;3.63;;
62332;SDS011;48624;49.812;8.562;2023-10-19T12:46:55;6.47;;;3.10;;
62332;SDS011;48624;49.812;8.562;2023-10-19T12:49:22;6.20;;;3.90;;
62332;SDS011;48624;49.812;8.562;2023-10-19T12:51:51;6.25;;;4.20;;
62332;SDS011;48624;49.812;8.562;2023-10-19T12:54:17;5.82;;;3.70;;
62332;SDS011;48624;49.812;8.562;2023-10-19T12:56:42;4.90;;;3.80;;
62332;SDS011;48624;49.812;8.562;2023-10-19T12:59:08;4.88;;;4.03;;
62332;SDS011;48624;49.812;8.562;2023-10-19T13:01:34;6.03;;;3.70;;
62332;SDS011;48624;49.812;8.562;2023-10-19T13:04:00;6.13;;;3.33;;
62332;SDS011;48624;49.812;8.562;2023-10-19T13:06:26;5.55;;;3.15;;
62332;SDS011;48624;49.812;8.562;2023-10-19T13:08:54;7.25;;;4.35;;
62332;SDS011;48624;49.812;8.562;2023-10-19T13:11:19;6.75;;;3.72;;
62332;SDS011;48624;49.812;8.562;2023-10-19T13:13:45;4.50;;;4.03;;
62332;SDS011;48624;49.812;8.562;2023-10-19T13:16:13;6.68;;;4.22;;
62332;SDS011;48624;49.812;8.562;2023-10-19T13:18:39;5.72;;;3.92;;
62332;SDS011;48624;49.812;8.562;2023-10-19T13:21:05;8.90;;;4.03;;
62332;SDS011;48624;49.812;8.562;2023-10-19T13:23:33;4.88;;;3.63;;
62332;SDS011;48624;49.812;8.562;2023-10-19T13:25:58;8.50;;;5.07;;
62332;SDS011;48624;49.812;8.562;2023-10-19T13:28:42;8.38;;;5.25;;
62332;SDS011;48624;49.812;8.562;2023-10-19T13:31:08;10.77;;;5.20;;
62332;SDS011;48624;49.812;8.562;2023-10-19T13:33:38;7.95;;;6.00;;
62332;SDS011;48624;49.812;8.562;2023-10-19T13:36:05;9.15;;;6.03;;
62332;SDS011;48624;49.812;8.562;2023-10-19T13:38:31;8.65;;;5.35;;
62332;SDS011;48624;49.812;8.562;2023-10-19T13:40:56;9.07;;;6.85;;
62332;SDS011;48624;49.812;8.562;2023-10-19T13:43:21;11.95;;;6.95;;
62332;SDS011;48624;49.812;8.562;2023-10-19T13:45:47;10.52;;;8.77;;
62332;SDS011;48624;49.812;8.562;2023-10-19T13:48:13;31.48;;;22.10;;
62332;SDS011;48624;49.812;8.562;2023-10-19T13:50:46;11.27;;;8.48;;
62332;SDS011;48624;49.812;8.562;2023-10-19T13:53:17;10.05;;;6.78;;
62332;SDS011;48624;49.812;8.562;2023-10-19T13:55:43;10.35;;;7.05;;
62332;SDS011;48624;49.812;8.562;2023-10-19T13:58:09;11.02;;;7.03;;
62332;SDS011;48624;49.812;8.562;2023-10-19T14:00:36;8.52;;;6.75;;
62332;SDS011;48624;49.812;8.562;2023-10-19T14:03:04;13.23;;;9.65;;
62332;SDS011;48624;49.812;8.562;2023-10-19T14:05:30;16.10;;;13.70;;
62332;SDS011;48624;49.812;8.562;2023-10-19T14:08:01;39.20;;;29.52;;
62332;SDS011;48624;49.812;8.562;2023-10-19T14:10:28;21.58;;;14.88;;
62332;SDS011;48624;49.812;8.562;2023-10-19T14:12:54;10.25;;;7.60;;
62332;SDS011;48624;49.812;8.562;2023-10-19T14:15:19;10.85;;;7.13;;
62332;SDS011;48624;49.812;8.562;2023-10-19T14:17:46;7.68;;;6.88;;
62332;SDS011;48624;49.812;8.562;2023-10-19T14:20:13;8.50;;;6.68;;
62332;SDS011;48624;49.812;8.562;2023-10-19T14:25:08;10.35;;;7.53;;
62332;SDS011;48624;49.812;8.562;2023-10-19T14:27:40;8.73;;;7.25;;
62332;SDS011;48624;49.812;8.562;2023-10-19T14:30:13;11.18;;;7.00;;
62332;SDS011;48624;49.812;8.562;2023-10-19T14:32:44;8.77;;;6.43;;
62332;SDS011;48624;49.812;8.562;2023-10-19T14:35:12;8.73;;;7.50;;
62332;SDS011;48624;49.812;8.562;2023-10-19T14:37:41;11.02;;;7.93;;
62332;SDS011;48624;49.812;8.562;2023-10-19T14:42:34;10.30;;;7.68;;
62332;SDS011;48624;49.812;8.562;2023-10-19T14:45:04;12.60;;;8.55;;